createdAt,value
2022-07-31T00:01:32.619Z,23.42
2022-07-31T00:03:59.310Z,23.39
2022-07-31T00:06:26.013Z,23.38
2022-07-31T00:08:52.675Z,23.35
2022-07-31T00:11:19.272Z,23.35
2022-07-31T00:13:57.420Z,23.32
2022-07-31T00:16:25.841Z,23.28
2022-07-31T00:18:52.628Z,23.22
2022-07-31T00:21:19.304Z,23.19
2022-07-31T00:23:45.822Z,23.17
2022-07-31T00:26:12.386Z,23.15
2022-07-31T00:28:38.961Z,23.09
2022-07-31T00:31:05.551Z,23.08
2022-07-31T00:33:32.065Z,23.04
2022-07-31T00:35:58.625Z,22.97
2022-07-31T00:38:27.004Z,22.90
2022-07-31T00:40:54.137Z,22.85
2022-07-31T00:43:20.735Z,22.77
2022-07-31T00:45:50.541Z,22.65
2022-07-31T00:48:22.890Z,22.59
2022-07-31T00:50:50.946Z,22.54
2022-07-31T00:53:17.517Z,22.45
2022-07-31T00:55:51.404Z,22.42
2022-07-31T00:58:19.955Z,22.36
2022-07-31T01:00:46.818Z,22.30
2022-07-31T01:03:14.340Z,22.24
2022-07-31T01:05:41.745Z,22.17
2022-07-31T01:08:08.433Z,22.11
2022-07-31T01:10:54.302Z,22.01
2022-07-31T01:13:30.287Z,21.94
2022-07-31T01:16:01.082Z,21.89
2022-07-31T01:18:31.436Z,21.87
2022-07-31T01:21:03.193Z,21.82
2022-07-31T01:23:55.197Z,21.70
2022-07-31T01:26:37.940Z,21.67
2022-07-31T01:29:25.737Z,21.61
2022-07-31T01:32:01.372Z,21.57
2022-07-31T01:34:44.761Z,21.50
2022-07-31T01:37:18.039Z,21.42
2022-07-31T01:39:50.710Z,21.37
2022-07-31T01:42:19.713Z,21.31
2022-07-31T01:44:51.539Z,21.29
2022-07-31T01:47:21.427Z,21.26
2022-07-31T01:49:51.612Z,21.25
2022-07-31T01:52:19.223Z,21.14
2022-07-31T01:54:47.608Z,21.12
2022-07-31T01:57:18.480Z,21.08
2022-07-31T01:59:47.852Z,21.05
2022-07-31T02:02:16.158Z,21.05
2022-07-31T02:04:44.157Z,21.03
2022-07-31T02:07:11.075Z,21.02
2022-07-31T02:09:37.926Z,21.01
2022-07-31T02:12:33.927Z,20.98
2022-07-31T02:15:03.706Z,20.95
2022-07-31T02:17:30.439Z,20.91
2022-07-31T02:20:00.406Z,20.89
2022-07-31T02:22:27.539Z,20.85
2022-07-31T02:24:54.048Z,20.75
2022-07-31T02:27:58.064Z,20.74
2022-07-31T02:30:10.769Z,20.68
2022-07-31T02:32:39.193Z,20.65
2022-07-31T02:35:07.824Z,20.63
2022-07-31T02:37:37.399Z,20.62
2022-07-31T02:40:05.730Z,20.56
2022-07-31T02:42:32.877Z,20.49
2022-07-31T02:45:00.857Z,20.53
2022-07-31T02:47:28.865Z,20.52
2022-07-31T02:49:57.979Z,20.49
2022-07-31T02:52:25.236Z,20.49
2022-07-31T02:54:52.833Z,20.43
2022-07-31T02:57:19.368Z,20.38
2022-07-31T02:59:45.886Z,20.36
2022-07-31T03:02:12.465Z,20.34
2022-07-31T03:04:39.031Z,20.27
2022-07-31T03:07:05.580Z,20.27
2022-07-31T03:09:32.060Z,20.22
2022-07-31T03:11:58.727Z,20.23
2022-07-31T03:14:33.132Z,20.23
2022-07-31T03:17:00.479Z,20.21
2022-07-31T03:19:28.651Z,20.22
2022-07-31T03:21:56.336Z,20.20
2022-07-31T03:24:23.005Z,20.19
2022-07-31T03:26:49.615Z,20.18
2022-07-31T03:29:36.128Z,20.18
2022-07-31T03:32:02.769Z,20.16
2022-07-31T03:34:29.432Z,20.13
2022-07-31T03:36:55.906Z,20.12
2022-07-31T03:39:22.401Z,20.11
2022-07-31T03:41:50.407Z,20.11
2022-07-31T03:44:17.029Z,20.12
2022-07-31T03:46:43.590Z,20.11
2022-07-31T03:49:10.317Z,20.10
2022-07-31T03:51:37.089Z,20.11
2022-07-31T03:54:03.920Z,20.10
2022-07-31T03:56:31.324Z,20.09
2022-07-31T03:58:57.913Z,20.10
2022-07-31T04:01:26.951Z,20.08
2022-07-31T04:04:13.621Z,20.12
2022-07-31T04:06:40.739Z,20.09
2022-07-31T04:09:18.409Z,20.10
2022-07-31T04:11:45.958Z,20.12
2022-07-31T04:14:12.574Z,20.16
2022-07-31T04:16:39.051Z,20.17
2022-07-31T04:19:05.544Z,20.19
2022-07-31T04:21:32.047Z,20.19
2022-07-31T04:23:58.736Z,20.22
2022-07-31T04:26:26.391Z,20.22
2022-07-31T04:28:53.201Z,20.28
2022-07-31T04:31:19.841Z,20.32
2022-07-31T04:33:48.927Z,20.34
2022-07-31T04:36:30.107Z,20.39
2022-07-31T04:38:58.718Z,20.41
2022-07-31T04:41:25.247Z,20.45
2022-07-31T04:43:52.196Z,20.48
2022-07-31T04:46:18.664Z,20.47
2022-07-31T04:48:45.297Z,20.50
2022-07-31T04:51:23.404Z,20.54
2022-07-31T04:53:51.168Z,20.57
2022-07-31T04:56:34.028Z,20.59
2022-07-31T04:59:06.276Z,20.60
2022-07-31T05:01:33.605Z,20.66
2022-07-31T05:04:01.801Z,20.67
2022-07-31T05:06:42.623Z,20.73
2022-07-31T05:09:18.356Z,20.79
2022-07-31T05:11:46.795Z,20.85
2022-07-31T05:14:15.147Z,20.92
2022-07-31T05:16:41.892Z,20.90
2022-07-31T05:19:14.791Z,20.94
2022-07-31T05:21:51.382Z,21.04
2022-07-31T05:24:22.681Z,21.12
2022-07-31T05:27:03.438Z,21.20
2022-07-31T05:29:30.380Z,21.19
2022-07-31T05:32:00.651Z,21.29
2022-07-31T05:34:30.061Z,21.34
2022-07-31T05:36:58.378Z,21.38
2022-07-31T05:39:25.280Z,21.46
2022-07-31T05:41:52.802Z,21.48
2022-07-31T05:44:19.538Z,21.53
2022-07-31T05:46:46.144Z,21.59
2022-07-31T05:49:12.860Z,21.62
2022-07-31T05:51:43.146Z,21.65
2022-07-31T05:54:09.734Z,21.67
2022-07-31T05:56:36.236Z,21.62
2022-07-31T05:59:02.743Z,21.77
2022-07-31T06:01:29.328Z,21.79
2022-07-31T06:03:55.905Z,21.78
2022-07-31T06:06:22.425Z,21.86
2022-07-31T06:08:49.026Z,21.88
2022-07-31T06:11:15.516Z,21.91
2022-07-31T06:13:43.382Z,21.97
2022-07-31T06:16:16.083Z,22.05
2022-07-31T06:18:42.992Z,22.05
2022-07-31T06:23:37.110Z,22.18
2022-07-31T06:26:04.086Z,22.16
2022-07-31T06:28:48.526Z,22.25
2022-07-31T06:31:20.478Z,22.33
2022-07-31T06:33:48.575Z,22.32
2022-07-31T06:36:16.346Z,22.46
2022-07-31T06:38:42.988Z,22.54
2022-07-31T06:41:09.772Z,22.54
2022-07-31T06:43:36.491Z,22.53
2022-07-31T06:46:03.080Z,22.61
2022-07-31T06:48:30.178Z,22.63
2022-07-31T06:51:29.076Z,22.61
2022-07-31T06:53:43.463Z,22.57
2022-07-31T06:56:10.147Z,22.40
2022-07-31T06:58:36.700Z,22.46
2022-07-31T07:01:03.401Z,22.47
2022-07-31T07:03:30.082Z,22.51
2022-07-31T07:05:56.744Z,22.50
2022-07-31T07:08:23.392Z,22.52
2022-07-31T07:10:49.999Z,22.46
2022-07-31T07:13:16.591Z,22.49
2022-07-31T07:15:43.197Z,22.47
2022-07-31T07:18:09.834Z,22.53
2022-07-31T07:20:36.521Z,22.63
2022-07-31T07:23:03.549Z,22.66
2022-07-31T07:25:30.250Z,22.65
2022-07-31T07:27:56.893Z,22.68
2022-07-31T07:30:23.940Z,22.60
2022-07-31T07:32:50.570Z,22.73
2022-07-31T07:35:17.094Z,22.65
2022-07-31T07:37:43.561Z,22.65
2022-07-31T07:40:10.463Z,22.86
2022-07-31T07:42:37.200Z,22.92
2022-07-31T07:45:08.138Z,22.92
2022-07-31T07:48:02.367Z,22.82
2022-07-31T07:50:22.775Z,22.84
2022-07-31T07:52:54.025Z,22.82
2022-07-31T07:55:20.597Z,22.78
2022-07-31T07:57:47.117Z,22.85
2022-07-31T08:00:14.164Z,23.06
2022-07-31T08:02:42.592Z,23.05
2022-07-31T08:05:09.907Z,22.93
2022-07-31T08:07:42.168Z,22.80
2022-07-31T08:10:10.080Z,22.85
2022-07-31T08:12:37.701Z,22.84
2022-07-31T08:15:05.668Z,22.77
2022-07-31T08:17:32.224Z,22.88
2022-07-31T08:19:58.833Z,22.91
2022-07-31T08:22:25.424Z,22.93
2022-07-31T08:24:51.996Z,22.84
2022-07-31T08:27:39.432Z,22.83
2022-07-31T08:30:07.846Z,22.72
2022-07-31T08:32:34.709Z,22.86
2022-07-31T08:35:01.289Z,22.77
2022-07-31T08:37:52.363Z,22.77
2022-07-31T08:40:14.448Z,22.87
2022-07-31T08:42:41.910Z,22.77
2022-07-31T08:45:09.339Z,23.09
2022-07-31T08:47:36.510Z,23.10
2022-07-31T08:50:05.502Z,23.11
2022-07-31T08:52:34.556Z,23.12
2022-07-31T08:55:06.170Z,23.12
2022-07-31T08:57:32.954Z,22.93
2022-07-31T08:59:59.456Z,22.90
2022-07-31T09:02:26.208Z,22.78
2022-07-31T09:04:53.063Z,22.83
2022-07-31T09:07:19.741Z,22.84
2022-07-31T09:09:51.595Z,22.73
2022-07-31T09:12:33.275Z,22.78
2022-07-31T09:15:00.973Z,22.91
2022-07-31T09:17:36.747Z,22.96
2022-07-31T09:20:05.691Z,22.98
2022-07-31T09:22:32.436Z,23.08
2022-07-31T09:25:12.118Z,23.08
2022-07-31T09:27:39.427Z,23.18
2022-07-31T09:30:07.492Z,22.94
2022-07-31T09:32:34.277Z,22.83
2022-07-31T09:35:09.893Z,22.87
2022-07-31T09:37:37.031Z,22.88
2022-07-31T09:40:04.278Z,22.81
2022-07-31T09:42:39.054Z,22.73
2022-07-31T09:45:19.775Z,22.98
2022-07-31T09:47:47.034Z,22.98
2022-07-31T09:50:14.425Z,22.90
2022-07-31T09:52:41.009Z,23.00
2022-07-31T09:55:16.313Z,23.07
2022-07-31T09:58:00.277Z,23.18
2022-07-31T10:00:27.939Z,23.12
2022-07-31T10:02:55.982Z,23.19
2022-07-31T10:05:27.560Z,23.07
2022-07-31T10:07:57.340Z,23.22
2022-07-31T10:10:24.658Z,23.36
2022-07-31T10:12:54.205Z,23.52
2022-07-31T10:15:23.044Z,23.39
2022-07-31T10:17:51.605Z,23.47
2022-07-31T10:20:22.077Z,23.60
2022-07-31T10:22:53.483Z,23.54
2022-07-31T10:25:29.161Z,23.62
2022-07-31T10:27:57.305Z,23.86
2022-07-31T10:30:28.097Z,23.93
2022-07-31T10:32:56.255Z,23.86
2022-07-31T10:35:22.945Z,24.06
2022-07-31T10:38:11.743Z,24.00
2022-07-31T10:41:03.758Z,24.43
2022-07-31T10:43:47.016Z,24.63
2022-07-31T10:46:13.519Z,24.56
2022-07-31T10:48:51.309Z,24.74
2022-07-31T10:51:18.060Z,24.54
2022-07-31T10:54:05.594Z,24.56
2022-07-31T10:56:43.537Z,24.66
2022-07-31T10:59:11.204Z,24.74
2022-07-31T11:01:52.869Z,24.74
2022-07-31T11:04:28.134Z,24.84
2022-07-31T11:06:54.774Z,24.87
2022-07-31T11:09:25.989Z,24.81
2022-07-31T11:11:53.867Z,24.71
2022-07-31T11:14:38.870Z,24.80
2022-07-31T11:17:05.926Z,24.93
2022-07-31T11:19:43.870Z,24.74
2022-07-31T11:22:30.898Z,24.78
2022-07-31T11:25:00.590Z,24.68
2022-07-31T11:27:34.459Z,24.74
2022-07-31T11:30:12.993Z,24.56
2022-07-31T11:32:41.316Z,24.77
2022-07-31T11:35:08.956Z,24.71
2022-07-31T11:37:46.527Z,24.63
2022-07-31T11:40:25.799Z,24.57
2022-07-31T11:43:23.137Z,24.53
2022-07-31T11:45:49.956Z,24.72
2022-07-31T11:48:19.097Z,24.46
2022-07-31T11:50:47.883Z,24.54
2022-07-31T11:53:14.933Z,24.39
2022-07-31T11:55:44.563Z,24.51
2022-07-31T11:58:11.313Z,24.49
2022-07-31T12:00:38.105Z,24.42
2022-07-31T12:03:05.693Z,24.41
2022-07-31T12:05:37.926Z,24.28
2022-07-31T12:08:06.707Z,24.20
2022-07-31T12:10:33.399Z,24.36
2022-07-31T12:13:00.674Z,24.39
2022-07-31T12:15:27.269Z,24.57
2022-07-31T12:18:02.302Z,24.67
2022-07-31T12:20:36.743Z,24.70
2022-07-31T12:23:06.180Z,24.92
2022-07-31T12:25:43.396Z,25.41
2022-07-31T12:28:10.308Z,25.87
2022-07-31T12:30:37.198Z,26.10
2022-07-31T12:33:12.396Z,26.15
2022-07-31T12:35:56.378Z,26.11
2022-07-31T12:38:45.166Z,25.79
2022-07-31T12:41:14.147Z,26.19
2022-07-31T12:43:51.557Z,26.30
2022-07-31T12:46:20.737Z,26.44
2022-07-31T12:48:47.261Z,26.24
2022-07-31T12:51:14.042Z,26.35
2022-07-31T12:53:40.648Z,26.22
2022-07-31T12:56:11.877Z,26.32
2022-07-31T12:58:38.523Z,26.38
2022-07-31T13:01:05.027Z,26.38
2022-07-31T13:03:45.351Z,26.48
2022-07-31T13:06:13.560Z,26.38
2022-07-31T13:08:40.172Z,26.34
2022-07-31T13:11:06.702Z,26.16
2022-07-31T13:13:33.288Z,26.16
2022-07-31T13:15:59.845Z,26.10
2022-07-31T13:18:26.457Z,26.22
2022-07-31T13:20:52.976Z,26.29
2022-07-31T13:23:21.379Z,26.31
2022-07-31T13:25:48.000Z,26.44
2022-07-31T13:28:14.524Z,26.42
2022-07-31T13:30:41.587Z,26.38
2022-07-31T13:33:08.193Z,26.21
2022-07-31T13:35:34.774Z,26.32
2022-07-31T13:38:01.331Z,26.33
2022-07-31T13:40:46.382Z,26.24
2022-07-31T13:43:13.156Z,26.13
2022-07-31T13:45:39.690Z,26.15
2022-07-31T13:48:09.318Z,26.17
2022-07-31T13:50:37.606Z,26.07
2022-07-31T13:53:05.002Z,25.95
2022-07-31T13:55:32.245Z,26.11
2022-07-31T13:57:59.448Z,26.13
2022-07-31T14:00:28.455Z,26.14
2022-07-31T14:02:55.048Z,26.08
2022-07-31T14:05:21.617Z,26.19
2022-07-31T14:07:52.039Z,26.29
2022-07-31T14:10:20.782Z,26.20
2022-07-31T14:12:48.511Z,26.17
2022-07-31T14:15:15.217Z,26.08
2022-07-31T14:17:41.842Z,26.21
2022-07-31T14:20:09.355Z,26.45
2022-07-31T14:22:35.973Z,26.87
2022-07-31T14:25:02.557Z,26.88
2022-07-31T14:27:29.140Z,26.97
2022-07-31T14:29:55.772Z,27.07
2022-07-31T14:32:22.744Z,26.92
2022-07-31T14:34:50.258Z,26.87
2022-07-31T14:37:17.135Z,26.68
2022-07-31T14:39:43.836Z,26.69
2022-07-31T14:42:11.383Z,26.79
2022-07-31T14:44:41.577Z,26.67
2022-07-31T14:47:09.280Z,26.39
2022-07-31T14:50:08.977Z,26.13
2022-07-31T14:52:22.630Z,26.06
2022-07-31T14:54:49.190Z,25.94
2022-07-31T14:57:22.255Z,26.18
2022-07-31T14:59:50.106Z,26.63
2022-07-31T15:02:21.783Z,27.18
2022-07-31T15:04:49.136Z,27.65
2022-07-31T15:10:06.579Z,27.37
2022-07-31T15:12:33.688Z,27.64
2022-07-31T15:15:00.383Z,28.07
2022-07-31T15:17:27.193Z,28.21
2022-07-31T15:19:53.814Z,27.92
2022-07-31T15:22:20.326Z,27.99
2022-07-31T15:24:48.892Z,27.99
2022-07-31T15:27:21.741Z,27.98
2022-07-31T15:30:05.823Z,28.01
2022-07-31T15:32:37.608Z,27.83
2022-07-31T15:35:06.268Z,27.51
2022-07-31T15:37:37.293Z,27.45
2022-07-31T15:40:06.131Z,27.23
2022-07-31T15:42:33.426Z,27.23
2022-07-31T15:45:00.113Z,27.24
2022-07-31T15:47:26.660Z,27.24
2022-07-31T15:49:53.292Z,27.22
2022-07-31T15:52:20.007Z,27.20
2022-07-31T15:54:47.053Z,26.99
2022-07-31T15:57:14.642Z,26.89
2022-07-31T15:59:41.669Z,26.86
2022-07-31T17:13:23.078Z,23.89
2022-07-31T17:15:49.684Z,23.65
2022-07-31T17:18:16.180Z,23.38
2022-07-31T17:20:46.844Z,22.89
2022-07-31T17:23:13.358Z,22.60
2022-07-31T17:25:40.020Z,22.59
2022-07-31T17:28:10.135Z,22.56
2022-07-31T17:30:39.113Z,22.48
2022-07-31T17:33:05.626Z,22.49
2022-07-31T17:35:32.166Z,22.46
2022-07-31T17:37:58.635Z,22.48
2022-07-31T17:40:42.451Z,22.45
2022-07-31T17:43:09.813Z,22.34
2022-07-31T17:45:59.439Z,22.26
2022-07-31T17:48:25.007Z,22.38
2022-07-31T17:50:54.240Z,22.40
2022-07-31T17:53:21.048Z,22.43
2022-07-31T17:55:49.463Z,22.38
2022-07-31T17:58:16.781Z,22.38
2022-07-31T18:00:43.453Z,22.35
2022-07-31T18:03:10.210Z,22.46
2022-07-31T18:05:37.691Z,22.42
2022-07-31T18:08:04.513Z,22.48
2022-07-31T18:10:52.259Z,22.55
2022-07-31T18:13:17.579Z,22.49
2022-07-31T18:15:44.232Z,22.36
2022-07-31T18:18:10.851Z,22.32
2022-07-31T18:20:38.139Z,22.30
2022-07-31T18:23:04.747Z,22.38
2022-07-31T18:25:36.911Z,22.33
2022-07-31T18:28:03.501Z,22.32
2022-07-31T18:30:30.464Z,22.33
2022-07-31T18:33:00.363Z,22.33
2022-07-31T18:35:26.909Z,22.35
2022-07-31T18:37:53.484Z,22.34
2022-07-31T18:40:19.985Z,22.35
2022-07-31T18:42:46.484Z,22.37
2022-07-31T18:45:13.055Z,22.40
2022-07-31T18:47:39.560Z,22.40
2022-07-31T18:51:02.968Z,22.32
2022-07-31T18:52:52.919Z,22.33
2022-07-31T18:55:19.494Z,22.19
2022-07-31T18:57:46.015Z,22.13
2022-07-31T19:00:12.894Z,22.13
2022-07-31T19:02:39.428Z,22.10
2022-07-31T19:05:07.437Z,22.14
2022-07-31T19:07:40.374Z,22.11
2022-07-31T19:10:07.878Z,22.09
2022-07-31T19:12:35.464Z,22.08
2022-07-31T19:15:03.271Z,22.04
2022-07-31T19:17:44.660Z,21.92
2022-07-31T19:20:12.594Z,22.01
2022-07-31T19:22:58.967Z,21.99
2022-07-31T19:25:25.679Z,21.96
2022-07-31T19:27:52.157Z,21.95
2022-07-31T19:30:18.702Z,21.88
2022-07-31T19:32:45.223Z,21.86
2022-07-31T19:35:23.784Z,21.84
2022-07-31T19:38:01.176Z,21.81
2022-07-31T19:40:28.838Z,21.75
2022-07-31T19:42:59.574Z,21.78
2022-07-31T19:45:26.759Z,21.78
2022-07-31T19:47:53.589Z,21.63
2022-07-31T19:50:20.107Z,21.69
2022-07-31T19:52:47.836Z,21.66
2022-07-31T19:55:15.171Z,21.64
2022-07-31T19:57:42.810Z,21.63
2022-07-31T20:00:11.779Z,21.66
2022-07-31T20:02:39.866Z,21.66
2022-07-31T20:05:07.292Z,21.62
2022-07-31T20:07:34.067Z,21.63
2022-07-31T20:10:01.815Z,21.57
2022-07-31T20:12:28.350Z,21.54
2022-07-31T20:14:54.842Z,21.58
2022-07-31T20:17:21.341Z,21.55
2022-07-31T20:20:02.998Z,21.52
2022-07-31T20:22:34.368Z,21.48
2022-07-31T20:25:00.946Z,21.49
2022-07-31T20:27:38.437Z,21.48
2022-07-31T20:30:08.975Z,21.48
2022-07-31T20:32:38.115Z,21.48
2022-07-31T20:35:32.816Z,21.49
2022-07-31T20:38:02.285Z,21.41
2022-07-31T20:40:28.899Z,21.46
2022-07-31T20:42:55.490Z,21.40
2022-07-31T20:45:23.292Z,21.45
2022-07-31T20:47:52.008Z,21.41
2022-07-31T20:50:19.267Z,21.42
2022-07-31T20:52:48.512Z,21.47
2022-07-31T20:55:15.260Z,21.39
2022-07-31T20:57:42.385Z,21.35
2022-07-31T21:00:09.656Z,21.38
2022-07-31T21:02:36.167Z,21.36
2022-07-31T21:05:05.724Z,21.37
2022-07-31T21:07:32.201Z,21.33
2022-07-31T21:09:58.678Z,21.35
2022-07-31T21:12:29.518Z,21.29
2022-07-31T21:14:56.253Z,21.31
2022-07-31T21:17:22.721Z,21.35
2022-07-31T21:19:49.201Z,21.26
2022-07-31T21:22:15.678Z,21.14
2022-07-31T21:24:42.514Z,21.26
2022-07-31T21:27:12.231Z,21.20
2022-07-31T21:29:38.982Z,21.26
2022-07-31T21:32:06.473Z,21.26
2022-07-31T21:34:33.629Z,21.17
2022-07-31T21:37:01.335Z,21.29
2022-07-31T21:39:28.895Z,21.25
2022-07-31T21:41:55.723Z,21.30
2022-07-31T21:44:22.341Z,21.31
2022-07-31T21:46:53.862Z,21.23
2022-07-31T21:49:22.589Z,21.27
2022-07-31T21:51:49.443Z,21.24
2022-07-31T21:54:17.858Z,21.25
2022-07-31T21:56:44.468Z,21.22
2022-07-31T21:59:12.831Z,21.25
2022-07-31T22:01:39.439Z,21.23
2022-07-31T22:04:34.361Z,21.21
2022-07-31T22:07:20.082Z,21.24
2022-07-31T22:09:46.544Z,21.25
2022-07-31T22:12:13.127Z,21.29
2022-07-31T22:14:39.576Z,21.29
2022-07-31T22:17:09.708Z,21.27
2022-07-31T22:19:44.315Z,21.28
2022-07-31T22:22:14.361Z,21.30
2022-07-31T22:24:41.189Z,21.30
2022-07-31T22:27:26.467Z,21.24
2022-07-31T22:29:53.364Z,21.25
2022-07-31T22:32:19.838Z,21.28
2022-07-31T22:34:46.473Z,21.28
2022-07-31T22:37:13.431Z,21.23
2022-07-31T22:39:40.154Z,21.23
2022-07-31T22:42:07.207Z,21.22
2022-07-31T22:44:36.992Z,21.16
2022-07-31T22:47:03.773Z,21.16
2022-07-31T22:49:30.485Z,21.23
2022-07-31T22:51:57.138Z,21.22
2022-07-31T22:54:23.714Z,21.13
2022-07-31T22:56:50.253Z,21.19
2022-07-31T22:59:16.851Z,21.09
2022-07-31T23:01:43.346Z,21.16
2022-07-31T23:04:09.833Z,21.12
2022-07-31T23:06:36.367Z,21.11
2022-07-31T23:09:03.253Z,21.09
2022-07-31T23:11:30.071Z,21.09
2022-07-31T23:13:56.636Z,21.06
2022-07-31T23:16:23.152Z,21.08
2022-07-31T23:18:51.384Z,21.05
2022-07-31T23:21:18.863Z,21.01
2022-07-31T23:23:48.068Z,20.99
2022-07-31T23:26:16.511Z,20.92
2022-07-31T23:28:43.025Z,20.98
2022-07-31T23:31:09.571Z,20.94
2022-07-31T23:33:36.116Z,20.88
2022-07-31T23:36:02.829Z,20.88
2022-07-31T23:38:29.389Z,20.81
2022-07-31T23:40:56.438Z,20.86
2022-07-31T23:43:23.905Z,20.86
2022-07-31T23:45:50.949Z,20.82
2022-07-31T23:48:23.158Z,20.82
2022-07-31T23:50:55.946Z,20.79
2022-07-31T23:53:22.436Z,20.78
2022-07-31T23:55:48.987Z,20.77
2022-07-31T23:58:15.548Z,20.81
